ADDS METAR Data INFO
IDs: Format: Raw Decoded Include TAF

Data at: 0506 UTC 23 May 2017

KGZN 230440Z AUTO 00000KT 10SM BKN095 BKN110 19/17 A2996 RMK AO2
KGZN 230420Z AUTO 00000KT 10SM BKN090 BKN110 19/17 A2997 RMK AO2
KGZN 230400Z AUTO 21004KT 10SM CLR 18/17 A2995 RMK AO2
KGZN 230340Z AUTO 19005KT 10SM FEW120 19/18 A2995 RMK AO2 LTG DSNT SE AND SW
KGZN 230320Z AUTO 18005G11KT 10SM VCTS FEW019 FEW027 FEW034 19/18 A2995 RMK AO2 LTG DSNT SE-W
KGZN 230300Z AUTO 20006KT 10SM FEW019 SCT031 BKN075 19/18 A2996 RMK AO2 P0002
KGZN 230240Z AUTO 18010KT 10SM VCTS FEW055 OVC070 19/18 A2994 RMK AO2 LTG DSNT ALQDS
KGZN 230220Z AUTO 17012KT 9SM VCTS RA FEW002 BKN055 OVC070 19/18 A2994 RMK AO2 LTG DSNT E AND SE AND W
KGZN 230200Z AUTO 20005G13KT 7SM VCTS RA FEW003 SCT025 BKN040 20/17 A2996 RMK AO2 LTG DSNT W-NE P0001
KGZN 230140Z AUTO 13004KT 10SM VCTS BKN041 BKN060 21/17 A2995 RMK AO2 LTG DSNT W-N
KGZN 230120Z AUTO 11004KT 10SM CLR 21/17 A2995 RMK AO2 LTG DSNT W AND NW
KGZN 230100Z AUTO 13009KT 10SM CLR 21/17 A2992 RMK AO2 LTG DSNT NW
KGZN 230040Z AUTO 14009KT 10SM SCT065 22/17 A2993 RMK AO2
KGZN 230020Z AUTO 14008G15KT 10SM BKN065 23/17 A2993 RMK AO2
KGZN 230000Z AUTO 14010KT 10SM OVC065 23/17 A2993 RMK AO2
KGZN 222340Z AUTO 13010KT 10SM FEW035 BKN060 23/17 A2993 RMK AO2
KGZN 222320Z AUTO 14010KT 10SM SCT028 BKN035 OVC060 23/17 A2993 RMK AO2
KGZN 222300Z AUTO 12008KT 10SM SCT028 OVC055 23/17 A2995 RMK AO2
KGZN 222240Z AUTO 14009KT 10SM FEW028 BKN055 24/17 A2994 RMK AO2
KGZN 222220Z AUTO 10010KT 10SM SCT028 24/17 A2994 RMK AO2
KGZN 222200Z AUTO 11009KT 10SM SCT027 24/17 A2995 RMK AO2
KGZN 222140Z AUTO 13007KT 10SM FEW027 24/17 A2996 RMK AO2
KGZN 222120Z AUTO 16009KT 10SM SCT025 24/17 A2997 RMK AO2
KGZN 222100Z AUTO 15008KT 10SM SCT024 24/17 A2998 RMK AO2
KGZN 222040Z AUTO 11008G13KT 10SM FEW023 FEW050 23/17 A2998 RMK AO2
KGZN 222020Z AUTO 13007KT 10SM FEW020 BKN050 23/17 A3000 RMK AO2
KGZN 222000Z AUTO 16008G13KT 10SM FEW019 BKN050 22/16 A3001 RMK AO2
KGZN 221940Z AUTO VRB06KT 10SM FEW017 OVC050 22/16 A3001 RMK AO2
KGZN 221920Z AUTO VRB06KT 10SM SCT016 OVC048 21/16 A3002 RMK AO2
KGZN 221900Z AUTO VRB04G11KT 10SM SCT015 OVC047 21/16 A3003 RMK AO2
KGZN 221840Z AUTO 12009KT 10SM BKN015 OVC045 20/16 A3004 RMK AO2
KGZN 221820Z AUTO 15008KT 10SM BKN015 OVC045 20/16 A3005 RMK AO2
KGZN 221800Z AUTO 14007KT 10SM BKN015 OVC044 20/16 A3005 RMK AO2
KGZN 221740Z AUTO 11004KT 10SM BKN014 OVC044 20/15 A3006 RMK AO2
KGZN 221720Z AUTO VRB03G12KT 10SM BKN013 OVC044 19/15 A3006 RMK AO2
KGZN 221700Z AUTO VRB04KT 10SM OVC013 18/15 A3008 RMK AO2
KGZN 221640Z AUTO 08005KT 10SM OVC013 18/15 A3009 RMK AO2
KGZN 221620Z AUTO VRB04KT 10SM OVC013 18/15 A3010 RMK AO2
KGZN 221600Z AUTO 00000KT 10SM OVC012 18/15 A3010 RMK AO2
KGZN 221540Z AUTO 09006KT 10SM OVC011 17/14 A3010 RMK AO2
KGZN 221520Z AUTO 04004KT 10SM OVC010 17/14 A3011 RMK AO2
KGZN 221500Z AUTO 09006KT 10SM OVC010 17/14 A3010 RMK AO2
KGZN 221440Z AUTO 11007KT 10SM BKN009 BKN038 16/14 A3009 RMK AO2
KGZN 221420Z AUTO 12007KT 10SM OVC011 16/14 A3009 RMK AO2
KGZN 221400Z AUTO 14008KT 10SM OVC012 16/14 A3010 RMK AO2
KGZN 221340Z AUTO 16005KT 10SM BKN010 BKN013 BKN043 16/14 A3009 RMK AO2
KGZN 221320Z AUTO 14008KT 10SM BKN009 BKN013 OVC060 16/13 A3009 RMK AO2
KGZN 221300Z AUTO 14007KT 10SM OVC008 15/13 A3009 RMK AO2
KGZN 221240Z AUTO 16007KT 10SM OVC009 15/13 A3009 RMK AO2
KGZN 221220Z AUTO 17007KT 10SM BKN010 OVC047 15/13 A3009 RMK AO2
KGZN 221200Z AUTO 15008KT 10SM OVC007 15/13 A3009 RMK AO2
KGZN 221140Z AUTO 15010KT 10SM OVC006 15/14 A3008 RMK AO2
KGZN 221120Z AUTO 15010KT 10SM OVC007 14/14 A3009 RMK AO2
KGZN 221100Z AUTO 15008KT 10SM BKN008 BKN013 14/13 A3009 RMK AO2
KGZN 221040Z AUTO 14007KT 10SM BKN013 14/13 A3008 RMK AO2
KGZN 221020Z AUTO 11006KT 10SM OVC015 14/13 A3009 RMK AO2
KGZN 221000Z AUTO 11005KT 10SM OVC017 15/13 A3010 RMK AO2
KGZN 220940Z AUTO 13005KT 10SM OVC017 15/13 A3011 RMK AO2
KGZN 220920Z AUTO 12007KT 10SM FEW009 OVC016 15/13 A3011 RMK AO2
KGZN 220900Z AUTO 12007KT 10SM SCT009 OVC015 15/13 A3011 RMK AO2
KGZN 220840Z AUTO 11008KT 10SM BKN009 OVC014 15/13 A3012 RMK AO2
KGZN 220820Z AUTO 12010KT 10SM OVC014 15/13 A3013 RMK AO2
KGZN 220800Z AUTO 12009KT 10SM OVC015 15/13 A3013 RMK AO2
KGZN 220740Z AUTO 11010KT 10SM OVC017 15/13 A3013 RMK AO2
KGZN 220720Z AUTO 11010KT 10SM OVC018 15/13 A3014 RMK AO2
KGZN 220700Z AUTO 12009KT 10SM OVC018 15/12 A3015 RMK AO2
KGZN 220640Z AUTO 13008KT 10SM OVC018 15/12 A3015 RMK AO2
KGZN 220620Z AUTO 09004KT 10SM BKN020 BKN030 OVC048 15/13 A3015 RMK AO2
KGZN 220600Z AUTO 09005KT 10SM FEW030 BKN039 OVC075 15/12 A3014 RMK AO2
KGZN 220540Z AUTO 07007KT 10SM FEW060 BKN075 OVC110 15/12 A3012 RMK AO2
KGZN 220520Z AUTO 03003KT 10SM SCT070 BKN090 OVC120 16/13 A3014 RMK AO2
KGZN 220500Z AUTO VRB03KT 10SM FEW075 SCT090 BKN110 16/12 A3014 RMK AO2
KGZN 220440Z AUTO 12009KT 10SM FEW065 SCT075 BKN110 15/12 A3012 RMK AO2
KGZN 220420Z AUTO 14007KT 10SM -RA SCT039 BKN075 OVC120 15/12 A3013 RMK AO2
KGZN 220400Z AUTO 14011KT 10SM SCT033 BKN048 OVC065 16/11 A3012 RMK AO2
KGZN 220340Z AUTO 14013G19KT 10SM FEW044 BKN065 OVC075 17/11 A3011 RMK AO2
KGZN 220320Z AUTO 13011KT 10SM FEW055 SCT065 BKN075 17/11 A3010 RMK AO2
KGZN 220300Z AUTO 15010KT 10SM FEW042 FEW065 BKN110 16/12 A3010 RMK AO2
KGZN 220240Z AUTO 16010KT 10SM SCT042 BKN110 17/12 A3011 RMK AO2
KGZN 220220Z AUTO 17007KT 10SM FEW038 FEW046 SCT065 17/12 A3012 RMK AO2
KGZN 220200Z AUTO 16004KT 10SM FEW060 17/12 A3011 RMK AO2
KGZN 220140Z AUTO 18006KT 10SM BKN060 BKN080 BKN100 17/12 A3011 RMK AO2
KGZN 220120Z AUTO 18008KT 10SM SCT044 BKN075 OVC100 18/12 A3012 RMK AO2
KGZN 220100Z AUTO 18005KT 10SM OVC045 18/11 A3013 RMK AO2
KGZN 220040Z AUTO 19005KT 10SM OVC044 18/12 A3013 RMK AO2
KGZN 220020Z AUTO 18006KT 10SM SCT044 BKN055 18/12 A3012 RMK AO2
KGZN 220000Z AUTO 20005KT 10SM FEW055 FEW065 FEW070 19/12 A3011 RMK AO2
KGZN 212340Z AUTO 17008KT 10SM BKN048 BKN055 OVC080 19/11 A3011 RMK AO2
KGZN 212320Z AUTO 20006KT 10SM BKN050 BKN065 20/11 A3013 RMK AO2
KGZN 212300Z AUTO 17005KT 10SM BKN050 BKN060 20/12 A3013 RMK AO2
KGZN 212240Z AUTO 15005KT 10SM SCT055 BKN070 BKN085 20/11 A3013 RMK AO2
KGZN 212220Z AUTO 13005KT 10SM FEW070 SCT085 20/11 A3014 RMK AO2
KGZN 212200Z AUTO 14006G12KT 10SM FEW070 SCT080 21/11 A3014 RMK AO2
KGZN 212140Z AUTO 12006KT 10SM FEW090 21/11 A3014 RMK AO2
KGZN 212120Z AUTO 13008KT 10SM FEW075 SCT095 21/11 A3014 RMK AO2
KGZN 212100Z AUTO 12008KT 10SM SCT075 BKN100 21/11 A3014 RMK AO2
KGZN 212040Z AUTO 14009KT 10SM BKN070 BKN085 22/11 A3014 RMK AO2
KGZN 212020Z AUTO 12010KT 10SM BKN070 BKN090 22/11 A3015 RMK AO2
KGZN 212000Z AUTO 11008KT 10SM BKN070 BKN080 22/11 A3015 RMK AO2
KGZN 211940Z AUTO 10007G13KT 060V120 10SM FEW070 22/11 A3015 RMK AO2
KGZN 211920Z AUTO 09008G14KT 10SM FEW070 22/10 A3015 RMK AO2
KGZN 211900Z AUTO 09013KT 10SM BKN070 22/10 A3013 RMK AO2
KGZN 211840Z AUTO 11011G17KT 10SM SCT070 SCT080 21/10 A3017 RMK AO2
KGZN 211820Z AUTO 10011G17KT 10SM BKN075 21/10 A3017 RMK AO2
KGZN 211800Z AUTO 10010KT 10SM FEW100 21/10 A3018 RMK AO2
KGZN 211740Z AUTO 07009KT 040V100 10SM BKN070 SCT080 BKN100 20/11 A3017 RMK AO2
KGZN 211720Z AUTO 12009KT 10SM OVC070 19/11 A3021 RMK AO2


Page loaded:  05:06 UTC  |   10:06 PM Pacific  |   11:06 PM Mountain  |   12:06 AM Central  |   01:06 AM Eastern

 

ADVISORIES

FORECASTS

FORECASTS

OBSERVATIONS

USER TOOLS

ABOUT US